Date,TemperatureHighF,TemperatureAvgF,TemperatureLowF,DewpointHighF,DewpointAvgF,DewpointLowF,HumidityHigh,HumidityAvg,HumidityLow,PressureMaxIn,PressureMinIn,WindSpeedMaxMPH,WindSpeedAvgMPH,GustSpeedMaxMPH,PrecipitationSumIn
2013-1-16,57,53,52,55,50,-100,99,96,92,29.72,29.66,4,-23,0,0.30
2013-1-17,52,42,33,52,42,32,99,99,94,29.94,29.54,14,3,0,2.04
2013-1-18,48,35,28,31,26,18,99,73,33,30.22,29.95,6,2,0,0.00
2013-1-19,57,36,22,30,26,22,99,74,30,30.16,29.86,4,1,0,0.00
2013-1-20,57,43,27,35,30,25,99,62,38,29.86,29.74,6,2,0,0.00
2013-1-21,53,41,26,31,22,13,99,49,33,29.81,29.67,7,3,0,0.00
2013-1-22,33,26,20,14,5,-3,57,41,23,29.94,29.74,7,3,0,0.00
2013-1-23,47,31,20,23,14,2,85,51,35,30.02,29.76,5,1,0,0.00
2013-1-24,39,31,23,29,15,4,93,54,26,30.14,29.72,10,3,0,0.00
2013-1-25,36,27,21,36,18,4,99,71,43,30.16,29.75,9,4,0,0.00
2013-1-26,48,37,29,37,28,22,99,74,39,30.05,29.79,6,3,0,0.00
2013-1-27,43,33,22,31,26,22,99,78,57,30.20,30.04,10,3,0,0.00
2013-1-28,65,47,34,50,40,30,99,79,55,30.14,29.93,13,2,0,0.00
2013-1-29,70,53,36,59,48,36,99,85,52,29.97,29.73,11,3,0,0.01
2013-1-30,64,59,44,61,56,43,99,93,79,29.72,29.21,15,6,0,3.22
2013-1-31,44,36,28,43,24,18,95,65,36,29.73,29.27,18,4,0,0.00
2013-2-1,43,28,20,32,15,8,89,57,39,30.05,29.65,18,4,0,0.00
2013-2-2,44,30,20,32,20,10,96,70,31,30.06,29.73,9,3,0,0.00
2013-2-3,48,36,28,34,26,20,97,68,36,29.76,29.61,10,3,0,0.00
2013-2-4,54,37,26,25,22,19,80,57,31,29.86,29.71,10,3,0,0.00
2013-2-5,58,42,29,37,31,25,94,67,41,29.77,29.66,5,1,0,0.00
2013-2-6,60,42,28,33,29,24,99,65,26,29.98,29.78,7,2,0,0.00
2013-2-7,45,38,32,41,34,28,99,88,54,30.03,29.75,3,1,0,0.37
2013-2-8,53,42,34,45,35,27,99,78,51,29.91,29.67,18,4,0,0.00
2013-2-9,57,40,29,27,21,10,82,55,15,30.08,29.88,14,3,0,0.00
2013-2-10,50,41,31,44,29,20,99,67,38,30.15,29.90,9,3,0,0.37
2013-2-11,60,51,44,55,46,30,99,83,44,29.92,29.76,6,2,0,0.03
2013-2-12,53,45,39,40,29,23,99,57,33,29.89,29.68,7,2,0,0.07
2013-2-13,55,41,34,45,37,30,99,89,50,29.68,29.39,15,3,0,0.23
2013-2-14,55,40,30,32,29,26,88,67,37,29.81,29.65,5,2,0,0.00
2013-2-15,59,40,26,38,30,26,99,74,30,29.87,29.69,10,3,0,0.00
2013-2-16,36,31,23,29,21,9,88,68,40,29.76,29.60,14,4,0,0.00
2013-2-17,38,28,20,16,9,6,73,46,27,29.97,29.73,19,4,0,0.00
2013-2-18,53,36,18,26,20,14,91,57,34,30.10,29.90,11,3,0,0.00
2013-2-19,56,43,34,42,27,13,98,57,30,29.91,29.63,16,5,0,0.09
2013-2-20,48,36,29,15,10,4,50,35,17,29.89,29.79,10,4,0,0.00
2013-2-21,61,42,25,38,16,5,98,41,11,29.97,29.81,9,2,0,0.18
2013-2-22,41,38,35,40,37,34,99,97,90,30.01,29.83,6,2,0,0.38
2013-2-23,55,46,37,51,44,37,99,95,84,29.84,29.59,4,1,0,0.20
2013-2-24,57,46,36,44,32,24,99,65,31,29.81,29.62,6,2,0,0.00
2013-2-25,46,37,30,32,27,23,94,68,45,29.89,29.76,10,3,0,0.00
2013-2-26,39,36,32,38,35,31,99,99,94,29.76,29.31,10,3,0,1.02
2013-2-27,58,43,31,39,33,24,99,72,28,29.55,29.38,10,3,0,0.00
2013-2-28,43,36,32,34,26,23,90,68,50,29.65,29.49,9,3,0,0.00
2013-3-1,41,35,31,29,28,26,88,76,62,29.68,29.63,8,3,0,0.00
2013-3-2,42,33,27,31,26,20,98,76,47,29.69,29.57,11,3,0,0.00
2013-3-3,35,27,23,20,16,13,80,64,48,29.74,29.66,10,4,0,0.00
2013-3-4,54,37,24,26,18,14,72,49,23,29.89,29.72,8,3,0,0.00
2013-3-5,52,42,34,49,37,25,99,81,60,29.83,29.39,10,2,0,0.71
2013-3-6,35,30,26,30,25,22,98,82,62,29.91,29.44,11,5,0,0.00
2013-3-7,44,33,28,30,26,24,89,77,56,30.04,29.88,10,4,0,0.00
2013-3-8,52,38,26,26,24,19,91,62,33,30.09,29.99,10,3,0,0.00
2013-3-9,63,44,22,30,26,22,99,56,25,30.11,29.97,6,2,0,0.00
2013-3-10,63,49,34,35,33,29,91,57,32,30.05,29.91,11,4,0,0.00
2013-3-11,57,51,47,52,47,35,99,86,50,29.93,29.59,14,6,0,0.60
2013-3-12,53,46,38,53,39,31,99,80,50,29.79,29.54,9,4,0,0.34
2013-3-13,49,38,28,32,25,18,99,63,33,29.92,29.79,9,3,0,0.00
2013-3-14,48,34,24,18,15,9,65,48,25,30.06,29.91,9,4,0,0.00
2013-3-15,71,48,26,40,29,17,77,51,24,29.96,29.68,13,3,0,0.00
2013-3-16,78,64,48,46,42,40,73,46,27,29.70,29.52,19,5,0,0.00
2013-3-17,76,60,47,49,45,43,85,60,32,29.78,29.61,10,3,0,0.00
2013-3-18,48,41,38,44,40,38,99,96,83,29.84,29.60,8,3,0,0.44
2013-3-19,59,47,38,43,30,14,99,59,22,29.85,29.62,8,3,0,0.00
2013-3-20,57,42,31,32,14,6,99,34,13,29.87,29.56,14,4,0,0.00
2013-3-21,39,30,22,29,16,11,94,59,34,29.68,29.55,8,3,0,0.01
2013-3-22,50,36,23,24,16,11,68,46,30,29.78,29.69,6,2,0,0.00
2013-3-23,60,45,36,44,36,22,98,72,49,29.78,29.62,5,2,0,0.02
2013-3-24,46,42,38,43,41,38,99,96,82,29.68,29.26,8,3,0,0.74
2013-3-25,39,35,31,38,24,19,99,64,46,29.64,29.28,17,6,0,0.01
2013-3-26,42,32,28,27,25,23,87,74,52,29.94,29.64,11,4,0,0.00
2013-3-27,46,36,29,27,24,21,87,66,43,30.02,29.93,10,4,0,0.00
2013-3-28,53,39,27,24,22,20,80,53,30,30.06,29.96,9,2,0,0.00
2013-3-29,58,40,24,40,28,21,97,68,25,30.10,29.99,7,2,0,0.00
2013-3-30,61,49,39,46,40,38,99,75,45,29.99,29.81,8,2,0,0.11
2013-3-31,67,54,46,54,49,40,99,85,48,29.82,29.61,8,2,0,0.18
2013-4-1,67,53,40,52,42,34,99,71,36,29.74,29.64,14,2,0,0.04
2013-4-2,60,47,37,34,26,20,70,46,24,29.91,29.73,9,3,0,0.00
2013-4-3,61,49,37,28,21,16,51,34,19,29.99,29.87,6,2,0,0.00
2013-4-4,49,40,35,37,32,20,99,80,34,29.99,29.72,6,2,0,0.64
2013-4-5,59,47,37,44,38,31,99,74,36,29.85,29.70,17,3,0,0.00
2013-4-6,65,52,32,40,34,30,99,57,29,30.00,29.84,11,3,0,0.00
2013-4-7,71,59,45,46,40,33,68,50,38,29.99,29.85,14,4,0,0.00
2013-4-8,75,60,41,53,48,40,99,66,43,29.94,29.84,14,4,0,0.00
2013-4-9,84,66,45,57,52,45,99,65,39,30.00,29.87,10,2,0,0.00
2013-4-10,86,69,48,58,54,48,99,64,34,29.92,29.74,10,3,0,0.00
2013-4-11,78,68,57,65,57,53,99,71,44,29.77,29.48,14,4,0,0.69
2013-4-12,74,63,52,65,53,37,99,74,36,29.65,29.42,11,4,0,1.08
2013-4-13,76,60,48,42,37,32,68,46,21,29.82,29.64,7,3,0,0.00
2013-4-14,73,55,37,51,42,36,99,66,31,29.89,29.76,9,3,0,0.00
2013-4-15,73,58,51,57,54,51,99,87,55,29.99,29.76,7,2,0,0.16
2013-4-16,85,67,56,60,57,55,99,74,41,30.08,29.96,11,3,0,0.00
2013-4-17,84,64,55,64,59,55,99,86,49,30.07,29.93,6,2,0,0.49
2013-4-18,78,66,56,62,58,56,99,80,50,29.94,29.74,12,4,0,0.00
2013-4-19,68,60,43,64,58,37,99,92,77,29.74,29.54,12,5,0,0.65
2013-4-20,65,48,35,37,31,28,81,56,27,30.07,29.74,16,4,0,0.00
2013-4-21,65,48,31,38,33,27,99,62,28,30.23,30.07,11,3,0,0.00
2013-4-22,72,53,38,40,37,34,99,60,29,30.17,29.96,8,3,0,0.00
2013-4-23,80,55,32,46,39,32,99,62,25,30.05,29.86,8,2,0,0.00
2013-4-24,73,58,43,58,50,42,99,78,53,29.91,29.80,14,4,0,0.00
2013-4-25,74,56,40,47,33,19,88,51,14,30.10,29.90,8,3,0,0.00
2013-4-26,72,56,38,42,34,30,77,47,24,30.20,30.08,9,2,0,0.00
2013-4-27,56,52,50,53,49,40,99,89,57,30.16,30.02,4,1,0,0.83
2013-4-28,52,50,47,52,50,45,99,98,90,30.03,29.80,7,2,0,1.99
2013-4-29,81,62,50,58,54,50,99,79,41,29.85,29.71,8,2,0,0.06
2013-4-30,78,62,49,59,54,49,99,79,46,29.97,29.77,9,2,0,0.00
2013-5-1,67,60,56,57,53,51,95,80,63,30.08,29.96,8,4,0,0.00
2013-5-2,64,57,54,56,54,52,99,90,72,30.09,30.01,8,3,0,0.01
2013-5-3,60,56,53,54,51,46,99,85,64,30.01,29.85,11,5,0,0.00
2013-5-4,56,50,48,50,46,40,99,87,74,29.87,29.73,16,6,0,0.51
2013-5-5,52,49,46,51,48,45,99,98,92,29.75,29.58,14,5,0,3.12
2013-5-6,68,57,45,53,48,41,99,76,39,29.68,29.56,10,5,0,0.02
2013-5-7,75,53,40,54,47,40,99,83,34,29.74,29.65,7,2,0,0.03
2013-5-8,78,59,47,59,53,47,99,84,46,29.84,29.71,7,1,0,0.03
2013-5-9,84,63,48,65,55,48,99,81,39,29.92,29.82,7,1,0,0.48
2013-5-10,81,65,49,61,56,49,99,76,45,29.91,29.75,13,3,0,0.00
2013-5-11,81,65,55,63,59,55,99,83,51,29.78,29.60,9,1,0,0.49
2013-5-12,68,57,46,56,43,31,99,63,32,29.85,29.69,10,4,0,0.00
2013-5-13,71,53,39,38,33,30,84,51,23,29.97,29.86,10,2,0,0.00
2013-5-14,80,58,34,51,42,34,99,64,24,30.04,29.87,8,2,0,0.00
2013-5-15,96,69,48,59,53,47,99,65,27,29.93,29.76,7,2,0,0.00
2013-5-16,88,68,51,58,55,51,99,71,33,29.87,29.76,6,1,0,0.00
2013-5-17,87,68,52,62,57,52,99,73,37,29.93,29.82,8,2,0,0.00
2013-5-18,70,64,58,66,62,58,99,94,82,29.93,29.85,6,1,0,1.19
2013-5-19,82,68,62,69,64,62,99,88,58,29.92,29.79,7,2,0,0.21
2013-5-20,91,71,61,68,64,60,99,81,41,29.92,29.82,8,2,0,0.00
2013-5-21,94,72,59,69,62,59,99,77,37,29.88,29.75,9,1,0,0.00
2013-5-22,86,68,58,74,64,58,99,87,50,29.82,29.66,8,2,0,1.05
2013-5-23,89,71,61,70,60,54,99,74,36,29.76,29.63,7,2,0,0.00
2013-5-24,71,61,49,54,46,38,94,61,32,30.03,29.72,11,4,0,0.00
2013-5-25,84,61,42,44,39,33,94,52,19,30.14,29.98,9,2,0,0.00
2013-5-26,83,62,49,53,49,45,98,66,28,30.09,29.96,7,1,0,0.04
2013-5-27,86,66,47,58,54,47,99,69,37,30.09,29.94,7,2,0,0.00
2013-5-28,89,70,54,62,58,54,99,71,36,30.03,29.93,11,2,0,0.00
2013-5-29,93,73,57,64,60,57,99,70,35,30.06,29.94,8,2,0,0.00
2013-5-30,89,71,56,65,60,55,99,73,40,30.10,29.96,8,2,0,0.00
2013-5-31,87,73,59,64,61,59,99,71,40,30.04,29.91,8,2,0,0.00
2013-6-1,88,74,63,64,62,60,97,70,43,29.95,29.82,11,3,0,0.00
2013-6-2,79,67,63,72,66,63,99,96,75,29.86,29.72,5,2,0,1.65
2013-6-3,88,71,63,71,64,60,99,80,42,29.78,29.66,10,2,0,0.28
2013-6-4,90,72,57,65,62,57,99,75,39,29.88,29.77,7,2,0,0.00
2013-6-5,86,71,62,68,65,62,99,83,55,29.91,29.75,10,3,0,0.33
2013-6-6,82,70,64,70,66,63,99,89,65,29.79,29.59,6,2,0,0.09
2013-6-8,88,72,66,69,67,63,99,89,43,29.91,29.76,5,1,0,0.22
2013-6-9,86,69,61,71,66,60,99,91,57,29.97,29.84,10,2,0,0.44
2013-6-10,85,72,65,68,66,60,99,84,45,29.84,29.69,8,3,0,0.81
2013-6-11,93,75,61,67,64,61,99,73,39,29.84,29.75,7,2,0,0.01
2013-6-12,100,78,60,75,67,60,99,75,34,29.86,29.75,6,1,0,0.00
2013-6-13,94,74,63,69,65,60,99,78,34,29.76,29.53,14,3,0,0.03
2013-6-14,86,71,58,64,56,52,98,63,36,29.86,29.63,14,3,0,0.00
2013-6-15,94,70,50,63,57,50,99,69,32,29.97,29.84,6,1,0,0.00
2013-6-16,95,74,57,66,62,57,99,70,33,29.96,29.81,6,2,0,0.00
2013-6-17,88,74,65,70,67,64,99,81,54,29.85,29.74,10,2,0,1.66
2013-6-18,82,70,63,71,66,61,99,88,62,29.76,29.61,8,2,0,0.00
2013-6-19,88,72,59,66,63,59,99,77,45,29.93,29.74,6,2,0,0.00
2013-6-20,88,71,61,66,63,60,99,78,46,30.04,29.92,7,2,0,0.00
2013-6-21,94,72,60,66,62,59,99,77,36,30.09,29.97,7,1,0,0.00
2013-6-22,96,74,57,63,59,53,99,69,26,30.07,29.90,5,1,0,0.00
2013-6-23,93,73,58,69,64,57,99,78,41,30.04,29.93,6,1,0,0.00
2013-6-24,93,76,64,70,67,64,99,78,47,30.05,29.91,9,2,0,0.03
2013-6-25,96,74,64,71,67,63,99,80,40,29.98,29.84,6,1,0,0.00
2013-6-26,96,74,63,73,68,63,99,86,46,29.87,29.74,6,1,0,1.20
2013-6-27,96,76,65,73,69,64,99,82,43,29.78,29.58,9,1,0,0.11
2013-6-28,94,76,64,70,66,63,99,78,39,29.63,29.43,8,2,0,0.02
2013-6-29,93,75,61,68,63,60,99,73,36,29.52,29.43,5,1,0,0.00
2013-6-30,93,73,59,66,62,58,99,75,35,29.62,29.51,7,2,0,0.00
2013-7-1,89,73,64,69,66,64,99,82,49,29.77,29.60,8,2,0,1.20
2013-7-2,92,73,64,71,67,63,99,84,46,29.94,29.75,7,2,0,0.50
2013-7-3,77,68,62,73,67,62,99,97,82,30.04,29.90,10,2,0,2.95
2013-7-4,77,67,62,72,66,62,99,97,83,30.04,29.96,12,2,0,2.83
2013-7-5,89,72,66,71,67,65,99,87,48,30.07,29.98,6,2,0,0.08
2013-7-6,86,73,66,72,68,66,99,88,58,30.03,29.91,8,3,0,1.16
2013-7-7,86,75,67,72,69,67,99,85,60,29.98,29.88,6,2,0,0.25
2013-7-8,96,76,68,71,68,65,99,80,38,30.01,29.91,5,1,0,0.00
2013-7-9,100,77,67,72,68,64,99,79,32,30.00,29.87,7,2,0,0.08
2013-7-10,96,75,66,74,69,66,99,85,44,29.96,29.75,9,2,0,0.75
2013-7-11,86,73,66,72,68,65,99,87,59,29.80,29.69,5,1,0,0.00
2013-7-12,92,72,65,70,66,63,99,84,45,29.80,29.70,6,1,0,0.00
2013-7-13,81,70,62,68,65,61,99,86,62,29.93,29.81,9,2,0,0.00
2013-7-14,78,70,65,71,68,64,99,95,77,30.10,29.90,9,3,0,1.49
2013-7-15,90,74,65,71,67,64,99,81,47,30.16,30.08,7,2,0,0.01
2013-7-16,100,79,64,72,68,64,99,75,38,30.17,30.04,6,1,0,0.05
2013-7-17,96,75,66,73,70,66,99,87,45,30.13,29.98,6,1,0,0.33
2013-7-18,97,79,66,73,69,66,99,77,41,30.03,29.89,6,1,0,0.01
2013-7-19,102,78,66,73,69,66,99,79,36,29.95,29.80,6,1,0,0.08
2013-7-20,98,76,68,74,70,67,99,83,41,29.86,29.74,6,1,0,0.00
2013-7-21,98,73,67,73,69,67,99,89,42,29.84,29.77,6,1,0,0.32
2013-7-22,92,74,66,76,70,66,99,88,46,29.83,29.65,7,1,0,0.53
2013-7-23,98,76,65,71,67,64,99,80,37,29.72,29.60,6,1,0,0.12
2013-7-24,95,77,65,72,67,64,99,75,41,29.68,29.60,8,2,0,0.00
2013-7-25,99,76,64,68,64,53,99,73,22,29.85,29.67,7,2,0,0.00
2013-7-26,89,72,60,70,65,59,99,83,48,29.92,29.81,8,2,0,0.44
2013-7-27,88,74,66,72,68,64,99,85,47,29.86,29.69,6,2,0,1.00
2013-7-28,93,76,65,68,66,62,99,76,41,29.85,29.72,7,1,0,0.00
2013-7-29,93,73,59,64,60,57,99,70,34,30.01,29.84,6,1,0,0.00
2013-7-30,93,73,57,69,64,57,99,76,43,30.05,29.95,6,1,0,0.00
2013-7-31,83,71,65,71,68,65,99,90,66,29.98,29.77,7,1,0,0.19
2013-8-1,92,76,66,73,68,65,99,80,48,29.79,29.70,7,1,0,0.82
2013-8-2,93,76,63,70,66,62,99,76,43,29.85,29.75,7,1,0,0.00
2013-8-3,92,75,64,70,66,64,99,78,42,29.86,29.77,4,1,0,0.00
2013-8-4,89,74,63,70,65,60,99,77,48,29.88,29.78,7,2,0,0.00
2013-8-5,89,73,60,69,64,60,99,78,46,29.90,29.77,6,2,0,0.00
2013-8-6,93,75,67,70,67,63,99,80,40,29.86,29.77,5,2,0,0.00
2013-8-7,74,71,69,73,70,68,99,97,89,29.89,29.81,6,1,0,1.65
2013-8-8,88,73,66,76,70,66,99,90,60,29.88,29.82,5,1,0,0.16
2013-8-9,95,75,67,77,71,66,99,88,46,29.91,29.83,7,1,0,0.25
2013-8-10,90,73,67,76,70,66,99,92,58,29.96,29.88,6,1,0,0.71
2013-8-11,90,72,67,76,70,66,99,93,55,29.99,29.88,3,0,0,0.42
2013-8-12,94,74,66,74,69,66,99,89,48,29.92,29.80,8,1,0,0.76
2013-8-13,90,73,67,75,69,66,99,89,54,29.81,29.63,5,1,0,0.11
2013-8-14,87,70,62,67,62,58,99,78,40,29.87,29.71,5,2,0,0.00
2013-8-15,72,64,56,62,58,54,99,83,58,29.96,29.86,6,1,0,0.00
2013-8-16,80,65,55,61,58,55,99,81,49,29.97,29.87,6,1,0,0.00
2013-8-17,73,64,59,63,59,56,99,86,62,30.00,29.92,4,1,0,0.17
2013-8-18,85,68,61,69,65,61,99,90,57,30.03,29.92,6,1,0,0.14
2013-8-19,79,69,64,69,66,63,99,92,69,30.00,29.89,5,1,0,1.40
2013-8-20,86,72,63,70,67,62,99,86,55,30.02,29.92,4,1,0,0.01
2013-8-21,82,71,65,71,68,65,99,92,68,30.06,29.93,4,1,0,0.06
2013-8-22,94,76,65,71,67,65,99,79,42,30.01,29.85,6,1,0,0.00
2013-8-23,92,75,62,71,66,62,99,78,42,29.91,29.79,8,1,0,0.00
2013-8-24,88,71,59,66,62,57,99,77,41,30.12,29.89,6,1,0,0.00
2013-8-25,86,67,51,64,58,51,99,77,40,30.22,30.07,7,1,0,0.00
2013-8-26,90,70,56,64,60,55,99,77,39,30.14,29.93,5,1,0,0.00
2013-8-27,91,71,56,69,63,55,99,80,46,29.98,29.83,6,1,0,0.00
2013-8-28,94,77,64,71,68,63,99,77,42,29.88,29.76,6,1,0,0.00
2013-8-29,95,79,68,72,70,67,99,77,44,29.82,29.71,8,1,0,0.00
2013-8-30,88,75,70,72,70,69,99,86,58,29.87,29.74,6,1,0,0.00
2013-8-31,95,75,68,71,69,65,99,84,45,29.79,29.69,6,1,0,0.03
2013-9-1,91,73,66,76,68,66,99,88,51,29.74,29.60,6,1,0,0.37
2013-9-2,92,74,66,71,68,65,99,84,48,29.75,29.62,5,1,0,0.00
2013-9-3,90,73,62,68,65,62,99,79,44,29.81,29.67,8,2,0,0.14
2013-9-4,95,74,59,68,64,59,99,75,36,29.94,29.80,6,1,0,0.00
2013-9-5,92,72,58,67,61,50,99,74,25,29.96,29.88,6,1,0,0.00
2013-9-6,90,71,55,63,60,55,99,75,37,30.02,29.88,7,1,0,0.00
2013-9-7,92,70,58,65,62,58,99,79,39,29.95,29.80,4,1,0,0.00
2013-9-8,88,70,58,69,63,58,99,82,47,29.85,29.74,6,1,0,0.00
2013-9-9,93,73,61,69,65,61,99,79,42,29.96,29.83,6,1,0,0.00
2013-9-10,97,74,61,69,65,61,99,78,36,30.08,29.96,7,1,0,0.00
2013-9-11,91,73,62,71,66,62,99,83,47,30.07,29.92,6,1,0,0.00
2013-9-12,90,72,63,74,67,63,99,85,50,29.92,29.69,5,1,0,0.14
2013-9-13,85,70,57,65,59,51,99,72,39,29.73,29.60,9,3,0,0.01
2013-9-14,83,64,50,56,52,50,99,71,35,29.91,29.73,5,1,0,0.00
2013-9-15,82,64,50,61,57,50,99,80,46,30.02,29.89,7,1,0,0.00
2013-9-16,88,69,55,64,59,55,99,76,37,29.98,29.88,5,1,0,0.00
2013-9-17,73,65,59,62,56,52,93,74,50,30.10,29.97,7,2,0,0.00
2013-9-18,76,63,54,61,57,54,99,84,51,30.09,29.96,4,1,0,0.00
2013-9-19,87,69,60,67,63,59,99,83,46,29.99,29.87,6,1,0,0.00
2013-9-20,90,72,61,66,63,58,99,78,37,29.91,29.72,6,1,0,0.00
2013-9-21,68,62,60,68,62,59,99,99,95,29.74,29.50,9,1,0,1.71
2013-9-22,80,65,54,60,55,53,99,76,41,29.72,29.55,8,2,0,0.01
2013-9-23,83,64,52,59,56,52,99,79,41,29.85,29.72,5,1,0,0.00
2013-9-24,85,66,55,61,59,55,99,81,40,29.89,29.72,6,1,0,0.00
2013-9-25,64,61,58,63,60,58,99,99,96,29.72,29.66,5,0,0,0.99
2013-9-26,78,63,54,62,59,53,99,88,58,29.86,29.68,4,0,0,0.00
2013-9-27,86,63,49,60,55,49,99,79,38,29.98,29.86,6,1,0,0.00
2013-9-28,75,63,52,58,55,52,99,78,52,30.05,29.94,5,1,0,0.00
2013-9-29,82,63,51,57,54,51,99,76,39,29.98,29.81,6,1,0,0.00
2013-9-30,84,63,51,59,56,51,99,81,36,29.92,29.78,6,1,0,0.00
2013-10-1,86,66,53,61,57,53,99,79,36,29.98,29.84,4,1,0,0.00
2013-10-2,87,67,53,63,58,52,99,78,38,30.00,29.87,6,1,0,0.00
2013-10-3,88,67,56,64,60,56,99,81,40,29.97,29.86,5,1,0,0.00
2013-10-4,91,69,56,64,60,56,99,79,38,30.00,29.88,7,1,0,0.00
2013-10-5,91,70,58,65,61,57,99,78,38,29.99,29.83,6,1,0,0.00
2013-10-6,83,68,56,66,60,56,99,81,49,29.87,29.69,11,2,0,0.00
2013-10-7,72,61,51,64,56,49,99,85,51,29.83,29.61,10,2,0,1.14
2013-10-8,76,57,47,52,49,46,99,79,41,29.99,29.82,6,1,0,0.00
2013-10-9,81,58,42,52,47,42,99,74,31,30.04,29.88,4,1,0,0.00
2013-10-10,78,58,42,54,49,42,99,75,40,29.94,29.81,8,2,0,0.00
2013-10-11,80,62,46,57,53,46,99,75,40,29.87,29.74,11,2,0,0.00
2013-10-12,80,62,49,60,56,48,99,82,47,29.90,29.79,8,1,0,0.00
2013-10-13,74,64,58,64,61,58,99,92,66,30.02,29.89,6,1,0,0.20
2013-10-14,71,62,55,64,59,55,99,91,68,30.05,29.94,6,1,0,0.01
2013-10-15,72,61,55,59,57,55,99,89,63,29.99,29.85,6,1,0,0.01
2013-10-16,76,61,51,58,55,51,99,84,52,29.88,29.75,4,0,0,0.00
2013-10-17,72,62,55,65,60,54,99,95,80,29.77,29.64,9,2,0,0.02
2013-10-18,77,58,46,55,51,45,99,80,42,29.83,29.71,7,2,0,0.00
2013-10-19,69,57,47,58,52,46,99,85,53,29.76,29.64,5,0,0,0.00
2013-10-20,75,52,37,46,42,30,99,75,23,29.88,29.74,5,1,0,0.00
2013-10-21,73,52,36,51,45,36,99,81,42,29.93,29.78,7,1,0,0.00
2013-10-22,76,58,48,56,50,47,99,78,39,29.81,29.59,6,1,0,0.00
2013-10-23,61,48,36,48,37,28,99,70,36,29.81,29.53,11,2,0,0.00
2013-10-24,60,44,32,36,32,27,88,64,37,29.93,29.81,5,2,0,0.00
2013-10-25,51,40,28,35,27,23,89,64,36,30.13,29.93,9,2,0,0.00
2013-10-26,63,41,22,37,30,22,99,71,26,30.10,29.82,7,1,0,0.00
2013-10-27,72,56,41,48,42,36,96,64,37,29.91,29.82,7,1,0,0.00
2013-10-28,65,53,45,59,51,44,99,94,70,30.05,29.89,4,0,0,0.10
2013-10-29,75,57,45,56,50,45,99,81,38,30.14,30.02,4,0,0,0.00
2013-10-30,81,62,50,57,53,50,99,77,39,30.09,29.95,5,1,0,0.00
2013-10-31,67,60,52,61,56,51,99,85,65,29.98,29.66,10,2,0,0.01
2013-11-1,83,66,49,63,56,46,99,74,31,29.63,29.40,14,3,0,0.14
2013-11-2,68,51,42,46,40,35,99,69,37,29.79,29.54,16,2,0,0.00
2013-11-3,63,47,34,39,35,31,99,68,31,30.13,29.78,12,2,0,0.00
2013-11-4,60,43,28,41,30,26,99,69,32,30.27,30.13,8,2,0,0.00
2013-11-5,66,44,31,38,33,22,99,70,21,30.30,30.18,7,1,0,0.00
2013-11-6,70,55,44,54,48,38,99,79,49,30.20,29.91,10,2,0,0.00
2013-11-7,61,50,40,57,43,30,99,80,53,29.94,29.79,8,2,0,0.01
2013-11-8,57,43,28,30,22,14,87,48,19,30.10,29.95,9,2,0,0.00
2013-11-9,60,42,23,33,28,22,99,64,29,30.15,30.00,6,1,0,0.00
2013-11-10,70,50,33,37,31,23,87,51,21,30.08,29.95,8,1,0,0.00
2013-11-11,66,46,29,30,26,22,83,50,23,30.10,29.93,6,1,0,0.00
2013-11-12,57,38,24,37,26,12,83,64,40,30.21,29.85,14,3,0,0.00
2013-11-13,49,31,22,19,15,12,84,55,23,30.29,30.20,9,3,0,0.00
2013-11-14,65,37,17,26,18,10,99,57,13,30.22,30.05,7,1,0,0.00
2013-11-15,52,40,25,49,35,20,99,82,50,30.08,29.95,4,0,0,0.15
2013-11-16,66,54,48,55,51,47,99,92,66,30.04,29.93,7,1,0,0.02
2013-11-17,60,56,53,57,55,52,99,96,91,29.97,29.66,9,2,0,0.33
2013-11-18,66,56,45,59,42,29,99,61,27,29.81,29.64,9,4,0,0.02
2013-11-19,59,45,37,30,26,21,76,50,23,29.99,29.81,10,3,0,0.00
2013-11-20,53,41,28,30,26,23,90,56,33,30.18,30.00,8,2,0,0.00
2013-11-21,50,45,40,47,38,29,99,80,61,30.23,30.14,7,0,0,0.09
2013-11-22,71,56,47,61,54,47,99,93,69,30.17,29.92,6,1,0,0.04
2013-11-23,56,47,32,56,42,20,99,83,60,29.99,29.90,11,4,0,0.00
2013-11-24,37,27,19,20,11,6,73,52,27,30.22,29.97,14,4,0,0.00
2013-11-25,40,28,16,24,11,4,90,53,23,30.24,30.02,9,2,0,0.00
2013-11-26,43,38,30,43,36,23,99,96,71,30.02,29.39,4,0,0,2.38
2013-11-27,43,31,23,42,27,15,99,86,68,29.92,29.37,19,6,0,0.05
2013-11-28,53,31,18,23,17,6,92,62,15,30.20,29.92,10,2,0,0.03
2013-11-29,60,36,21,26,23,18,99,68,20,30.32,30.19,6,1,0,0.00
2013-11-30,50,33,20,30,23,20,99,71,32,30.35,30.09,6,1,0,0.00
2013-12-1,66,41,23,37,30,22,99,70,32,30.09,29.77,5,1,0,0.00
2013-12-2,60,43,27,42,35,26,99,78,44,29.77,29.55,5,1,0,0.00
2013-12-3,59,49,40,50,46,40,99,88,68,29.71,29.61,9,2,0,0.00
2013-12-4,69,57,50,57,53,49,99,90,64,29.85,29.70,10,1,0,0.00
2013-12-5,71,63,57,64,60,56,99,93,74,29.88,29.77,12,2,0,0.37
2013-12-6,71,65,51,66,62,51,99,92,79,29.85,29.74,16,4,0,1.08
2013-12-7,52,45,39,51,42,39,99,91,71,30.12,29.80,7,3,0,0.01
2013-12-8,43,37,34,42,37,34,99,99,95,30.11,29.94,10,4,0,0.42
2013-12-9,54,47,34,54,46,34,99,99,98,29.97,29.79,6,2,0,0.53
2013-12-10,46,40,27,46,36,23,99,86,62,30.06,29.67,7,3,0,0.25
2013-12-11,57,35,21,28,21,6,99,63,15,30.17,30.02,5,1,0,0.00
2013-12-12,42,32,23,21,16,6,77,54,23,30.17,30.05,7,3,0,0.00
2013-12-13,54,35,17,26,18,14,94,57,24,30.13,29.96,5,1,0,0.00
2013-12-14,42,38,35,41,35,23,99,88,55,29.99,29.52,6,1,0,0.86
2013-12-15,42,36,28,42,33,26,99,88,69,29.86,29.50,13,4,0,0.00
2013-12-16,61,38,23,31,26,21,99,70,23,29.94,29.83,7,1,0,0.00
2013-12-17,65,43,25,34,28,21,99,64,24,29.92,29.69,22,4,0,0.00
2013-12-18,54,36,26,22,16,5,76,48,14,30.04,29.84,9,2,0,0.00
2013-12-19,63,41,20,30,22,17,94,55,22,30.07,29.95,9,1,0,0.00
2013-12-20,64,52,43,49,33,24,83,51,24,29.99,29.88,10,3,0,0.00
2013-12-21,64,58,54,64,56,49,99,92,82,29.91,29.75,12,3,0,0.44
2013-12-22,65,59,56,64,59,56,99,98,91,29.85,29.72,12,3,0,2.77
2013-12-23,56,47,33,56,45,32,99,94,83,29.98,29.78,10,2,0,0.26
2013-12-24,37,30,20,31,23,15,93,76,52,30.17,29.96,10,4,0,0.00
2013-12-25,42,26,15,22,15,8,99,68,28,30.24,30.08,7,1,0,0.00
2013-12-26,51,32,19,25,21,16,96,68,33,30.10,29.99,9,1,0,0.00
2013-12-27,56,33,19,29,23,19,99,73,26,30.21,30.09,5,0,0,0.00
2013-12-28,45,33,19,38,29,19,99,88,54,30.18,29.85,5,1,0,0.23
2013-12-29,56,43,37,48,40,35,99,90,70,29.83,29.56,9,2,0,0.75
2013-12-30,47,39,34,40,35,31,94,86,74,29.89,29.72,9,2,0,0.00
2013-12-31,44,33,24,31,24,17,93,70,39,30.14,29.88,7,2,0,0.00
2014-1-1,49,34,22,29,25,20,99,73,36,30.13,29.89,7,1,0,0.00
2014-1-2,47,34,20,46,32,13,98,90,74,29.89,29.42,15,2,0,0.05